Wolfcreek, West Virginia
Current Conditions -  °F | °C
As of 6:15 PM on Tuesday 25 Nov 2014 (Local Time) from KLWB Reporting Station
Clear Clear  
Wind Chill: 43°   Ceiling: Unl
Heat Index: 43°   Visibility: 10mi
Dew Point: 24°   Wind: 0mph
Humidity: 46%   Direction: NA
Pressure: 30.08"   Gusts: NA
Location:  37.67°N, 80.62°W
Report Text: KLWB 252315Z AUTO 00000KT 10SM CLR 06/M05 A3008 RMK AO2 T00621046
Loading
Personal Weather Stations






























Interactive Weather Map New forecast layout! Learn more

10-Day Weather Forecast

Advertisements
Track Severe Weather on mobile